Time;durP1;ratioP1;P1;durP2;ratioP2;P2;SDS_P1;SDS_P2;PMS_P1;PMS_P2;Temp;Humidity;BMP_temperature;BMP_pressure;BME280_temperature;BME280_humidity;BME280_pressure;Samples;Min_cycle;Max_cycle;Signal;HPM_P1;HPM_P2
2021/09/20 00:01:22;;;;;;;0.93;0.70;;;9.90;99.90;;;;;;4958851;29;20039;-92
2021/09/20 00:07:10;;;;;;;0.90;0.82;;;9.90;99.90;;;;;;4959991;29;20080;-92
2021/09/20 00:12:58;;;;;;;1.00;0.90;;;9.90;99.90;;;;;;4958679;28;20054;-92
2021/09/20 00:18:48;;;;;;;0.70;0.70;;;9.80;99.90;;;;;;4959904;29;20030;-93
2021/09/20 00:21:14;;;;;;;2.30;1.20;;;9.80;99.90;;;;;;4959136;28;20039;-93
2021/09/20 00:23:43;;;;;;;0.68;0.68;;;9.70;99.90;;;;;;4957999;28;20053;-92
2021/09/20 00:26:09;;;;;;;1.13;0.80;;;9.70;99.90;;;;;;4958080;28;20391;-92
2021/09/20 00:28:35;;;;;;;0.75;0.75;;;9.70;99.90;;;;;;4958040;29;20038;-92
2021/09/20 00:31:04;;;;;;;0.90;0.90;;;9.60;99.90;;;;;;4957601;29;20047;-92
2021/09/20 00:33:33;;;;;;;1.13;0.75;;;9.60;99.90;;;;;;4957552;28;20040;-92
2021/09/20 00:36:02;;;;;;;0.88;0.88;;;9.60;99.90;;;;;;4957668;29;20035;-92
2021/09/20 00:38:27;;;;;;;0.82;0.82;;;9.50;99.90;;;;;;4958565;28;20041;-92
2021/09/20 00:40:54;;;;;;;3.53;1.10;;;9.40;99.90;;;;;;4957662;29;20044;-92
2021/09/20 00:46:42;;;;;;;0.93;0.60;;;9.30;99.90;;;;;;4962072;29;20079;-92
2021/09/20 00:49:08;;;;;;;0.95;0.90;;;9.30;99.90;;;;;;4961703;28;20035;-92
2021/09/20 00:51:34;;;;;;;2.13;0.75;;;9.30;99.90;;;;;;4959597;29;20478;-92
2021/09/20 00:54:00;;;;;;;1.10;1.00;;;9.30;99.90;;;;;;4958381;29;20395;-92
2021/09/20 00:56:27;;;;;;;0.93;0.85;;;9.30;99.90;;;;;;4957837;29;20086;-91
2021/09/20 00:58:53;;;;;;;0.75;0.73;;;9.40;99.90;;;;;;4957358;29;20546;-92
2021/09/20 01:01:19;;;;;;;0.85;0.77;;;9.40;99.90;;;;;;4956879;29;20117;-92
2021/09/20 01:03:49;;;;;;;0.85;0.80;;;9.40;99.90;;;;;;4957060;29;20082;-92
2021/09/20 01:06:15;;;;;;;1.27;0.85;;;9.40;99.90;;;;;;4957250;28;20046;-92
2021/09/20 01:08:48;;;;;;;0.80;0.80;;;9.50;99.90;;;;;;4958646;29;20050;-92
2021/09/20 01:14:38;;;;;;;0.80;0.80;;;9.50;99.90;;;;;;4958361;29;20310;-92
2021/09/20 01:20:22;;;;;;;3.38;0.80;;;9.50;99.90;;;;;;4949169;29;20103;-93
2021/09/20 01:22:57;;;;;;;0.77;0.77;;;9.50;99.90;;;;;;4922538;29;20043;-92
2021/09/20 01:25:23;;;;;;;0.60;0.60;;;9.50;99.90;;;;;;4922056;29;20048;-92
2021/09/20 01:45:26;;;;;;;1.05;0.82;;;9.50;99.90;;;;;;4949456;28;20202;-92
2021/09/20 01:47:53;;;;;;;1.35;0.73;;;9.50;99.90;;;;;;4956767;29;20529;-92
2021/09/20 01:50:24;;;;;;;0.65;0.65;;;9.50;99.90;;;;;;4972483;28;20130;-93
2021/09/20 01:52:51;;;;;;;0.85;0.85;;;9.50;99.90;;;;;;4971814;28;20050;-93
2021/09/20 01:55:17;;;;;;;0.90;0.90;;;9.50;99.90;;;;;;4972421;28;20035;-93
2021/09/20 01:57:43;;;;;;;2.58;0.82;;;9.50;99.90;;;;;;4972445;28;20126;-92
2021/09/20 02:00:10;;;;;;;0.65;0.65;;;9.50;99.90;;;;;;4972200;28;20043;-93
2021/09/20 02:02:37;;;;;;;0.77;0.77;;;9.40;99.90;;;;;;4972065;28;20031;-93
2021/09/20 02:05:04;;;;;;;1.55;1.05;;;9.40;99.90;;;;;;4957097;29;20399;-93
2021/09/20 02:07:29;;;;;;;0.80;0.80;;;9.40;99.90;;;;;;4972138;28;20125;-93
2021/09/20 02:16:35;;;;;;;3.38;0.93;;;9.30;99.90;;;;;;4936460;29;20038;-93
2021/09/20 02:22:23;;;;;;;1.65;0.98;;;9.40;99.90;;;;;;4936248;29;20595;-93
2021/09/20 02:28:15;;;;;;;1.25;0.70;;;9.40;99.90;;;;;;4936480;29;20026;-92
2021/09/20 02:30:43;;;;;;;0.73;0.73;;;9.40;99.90;;;;;;4935572;29;20050;-93
2021/09/20 02:33:09;;;;;;;1.42;1.10;;;9.40;99.90;;;;;;4920053;29;20042;-92
2021/09/20 02:35:42;;;;;;;0.93;0.68;;;9.40;99.90;;;;;;4920050;29;20067;-92
2021/09/20 02:41:32;;;;;;;1.65;0.80;;;9.30;99.90;;;;;;4935828;29;20059;-93
2021/09/20 02:43:58;;;;;;;0.60;0.60;;;9.30;99.90;;;;;;4935875;29;20050;-93
2021/09/20 02:46:23;;;;;;;0.70;0.70;;;9.20;99.90;;;;;;4952619;29;20055;-92
2021/09/20 02:48:56;;;;;;;0.70;0.70;;;9.20;99.90;;;;;;4936907;29;20039;-92
2021/09/20 02:54:49;;;;;;;0.68;0.68;;;9.20;99.90;;;;;;4937284;29;20502;-93
2021/09/20 02:57:18;;;;;;;1.40;0.60;;;9.20;99.90;;;;;;4936441;29;20134;-92
2021/09/20 03:00:09;;;;;;;0.68;0.68;;;9.20;99.90;;;;;;4920439;29;20071;-93
2021/09/20 03:02:35;;;;;;;0.57;0.57;;;9.20;99.90;;;;;;4939072;29;20046;-93
2021/09/20 03:05:05;;;;;;;1.42;0.75;;;9.30;99.90;;;;;;4940582;29;20139;-92
2021/09/20 03:07:31;;;;;;;0.65;0.65;;;9.30;99.90;;;;;;4924482;29;20051;-93
2021/09/20 03:13:38;;;;;;;0.80;0.80;;;9.30;99.90;;;;;;4940829;29;20079;-93
2021/09/20 03:19:39;;;;;;;0.60;0.60;;;9.30;99.90;;;;;;4941027;29;20608;-92
2021/09/20 03:25:37;;;;;;;0.50;0.50;;;9.30;99.90;;;;;;4940985;29;20403;-92
2021/09/20 03:28:05;;;;;;;1.08;0.70;;;9.40;99.90;;;;;;4939629;29;20047;-92
2021/09/20 03:30:32;;;;;;;0.93;0.80;;;9.40;99.90;;;;;;4924316;29;20083;-92
2021/09/20 03:33:05;;;;;;;1.20;1.10;;;9.40;99.90;;;;;;4939376;29;20040;-92
2021/09/20 03:39:22;;;;;;;1.05;1.00;;;9.40;99.90;;;;;;4947011;29;20504;-92
2021/09/20 03:50:24;;;;;;;0.73;0.60;;;9.50;99.90;;;;;;4954332;28;20066;-93
2021/09/20 03:56:24;;;;;;;2.95;0.93;;;9.60;99.90;;;;;;4959435;29;20034;-93
2021/09/20 04:02:12;;;;;;;0.80;0.80;;;9.60;99.90;;;;;;4959570;29;20174;-92
2021/09/20 04:08:07;;;;;;;1.25;0.70;;;9.70;99.90;;;;;;4959097;29;20066;-93
2021/09/20 04:13:57;;;;;;;1.35;0.82;;;9.70;99.90;;;;;;4958367;28;20303;-93
2021/09/20 04:21:03;;;;;;;0.50;0.50;;;9.70;99.90;;;;;;4959388;29;20038;-92
2021/09/20 04:28:16;;;;;;;1.52;0.80;;;9.80;99.90;;;;;;4958906;29;20090;-93
2021/09/20 04:34:25;;;;;;;2.20;1.00;;;9.80;99.90;;;;;;4959949;29;20517;-93
2021/09/20 04:36:56;;;;;;;4.97;1.90;;;9.80;99.90;;;;;;4975514;28;20048;-92
2021/09/20 04:39:38;;;;;;;4.00;2.33;;;9.90;99.90;;;;;;4974756;28;20039;-92
2021/09/20 04:52:17;;;;;;;1.30;1.20;;;10.10;99.90;;;;;;4959090;28;20047;-93
2021/09/20 04:54:52;;;;;;;;;;;;;;;;;;;;;
2021/09/20 04:57:38;;;;;;;0.80;0.80;;;10.10;99.90;;;;;;4957154;29;20036;-92
2021/09/20 05:00:36;;;;;;;1.10;1.00;;;10.10;99.90;;;;;;4940580;29;20040;-92
2021/09/20 05:03:06;;;;;;;1.00;0.90;;;10.10;99.90;;;;;;4952851;29;20043;-93
2021/09/20 05:15:42;;;;;;;1.95;1.13;;;10.20;99.90;;;;;;4957939;29;20126;-91
2021/09/20 05:22:04;;;;;;;;;;;;;;;;;;;;;
2021/09/20 05:24:37;;;;;;;0.82;0.60;;;10.50;99.90;;;;;;4955536;28;20056;-92
2021/09/20 05:30:43;;;;;;;;;;;;;;;;;;;;;
2021/09/20 05:36:55;;;;;;;1.98;1.00;;;10.70;99.90;;;;;;4900159;29;20039;-93
2021/09/20 05:43:06;;;;;;;0.82;0.82;;;10.80;99.90;;;;;;4844617;29;20040;-91
2021/09/20 05:49:21;;;;;;;0.68;0.68;;;10.80;99.90;;;;;;4820894;29;20075;-91
2021/09/20 06:02:11;;;;;;;2.13;1.10;;;10.90;99.90;;;;;;4843590;29;20463;-92
2021/09/20 06:07:42;;;;;;;0.70;0.70;;;11.00;99.20;;;;;;4899756;29;20431;-92
2021/09/20 06:13:59;;;;;;;1.33;1.10;;;11.10;99.90;;;;;;4899615;29;20096;-93
2021/09/20 06:16:27;;;;;;;0.85;0.82;;;11.20;99.90;;;;;;4899025;29;20066;-93
2021/09/20 06:18:53;;;;;;;2.13;1.05;;;11.30;99.90;;;;;;4900142;29;20048;-92
2021/09/20 06:21:26;;;;;;;1.10;0.85;;;11.30;99.80;;;;;;4899522;29;20058;-93
2021/09/20 06:24:19;;;;;;;2.28;1.05;;;11.40;98.60;;;;;;4881653;29;20055;-91
2021/09/20 06:47:13;;;;;;;;;;;;;;;;;;;;;
2021/09/20 06:53:39;;;;;;;1.02;0.65;;;11.60;97.60;;;;;;4929297;29;20066;-92
2021/09/20 06:59:42;;;;;;;0.80;0.80;;;11.70;98.10;;;;;;4964934;29;20030;-91
2021/09/20 07:05:43;;;;;;;1.13;1.02;;;11.70;97.00;;;;;;4925551;29;20051;-91
2021/09/20 07:11:36;;;;;;;3.92;1.25;;;11.80;98.00;;;;;;4920997;29;20054;-91
2021/09/20 07:14:19;;;;;;;1.23;0.95;;;11.80;97.20;;;;;;4901880;29;20075;-92
2021/09/20 07:33:14;;;;;;;;;;;;;;;;;;;;;
2021/09/20 07:36:03;;;;;;;0.93;0.93;;;12.10;96.10;;;;;;4866241;29;20124;-93
2021/09/20 07:39:47;;;;;;;;;;;;;;;;;;;;;
2021/09/20 07:52:45;;;;;;;;;;;;;;;;;;;;;
2021/09/20 07:55:51;;;;;;;0.73;0.60;;;12.40;94.00;;;;;;4933265;29;20107;-92
2021/09/20 08:14:29;;;;;;;0.90;0.90;;;12.40;94.50;;;;;;4960925;28;20491;-92
2021/09/20 08:18:04;;;;;;;;;;;;;;;;;;;;;
2021/09/20 08:21:02;;;;;;;1.85;1.00;;;12.50;94.10;;;;;;4962164;28;20062;-94
2021/09/20 08:24:02;;;;;;;;;;;;;;;;;;;;;
2021/09/20 08:34:10;;;;;;;0.80;0.80;;;12.80;93.30;;;;;;4956202;28;20054;-94
2021/09/20 08:39:56;;;;;;;;;;;;;;;;;;;;;
2021/09/20 08:59:12;;;;;;;1.13;1.00;;;12.80;92.80;;;;;;4844476;29;20169;-94
2021/09/20 09:10:14;;;;;;;;;;;;;;;;;;;;;
2021/09/20 09:16:39;;;;;;;0.90;0.82;;;12.90;92.70;;;;;;4801155;29;20105;-94
2021/09/20 09:23:28;;;;;;;1.05;1.00;;;12.70;92.60;;;;;;4775725;30;20073;-94
2021/09/20 09:26:54;;;;;;;1.25;1.15;;;12.70;92.50;;;;;;4776491;29;20043;-93
2021/09/20 09:29:23;;;;;;;1.30;1.20;;;12.80;92.70;;;;;;4822811;29;20103;-95
2021/09/20 09:32:17;;;;;;;1.23;1.13;;;12.70;92.70;;;;;;4821214;29;20042;-94
2021/09/20 09:35:13;;;;;;;1.58;0.93;;;12.80;92.70;;;;;;4843625;29;20075;-94
2021/09/20 09:38:30;;;;;;;1.10;1.00;;;12.80;92.90;;;;;;4847071;29;20143;-95
2021/09/20 09:41:19;;;;;;;1.08;0.95;;;12.80;92.50;;;;;;4859910;29;20078;-95
2021/09/20 09:44:27;;;;;;;1.17;1.02;;;12.80;92.30;;;;;;4898013;29;20057;-95
2021/09/20 09:54:52;;;;;;;;;;;;;;;;;;;;;
2021/09/20 09:58:19;;;;;;;1.63;1.35;;;12.90;92.60;;;;;;4821558;29;20066;-94
2021/09/20 10:01:39;;;;;;;;;;;;;;;;;;;;;
2021/09/20 10:04:31;;;;;;;1.70;1.08;;;13.10;92.70;;;;;;4838946;29;20114;-96
2021/09/20 11:19:02;;;;;;;;;;;;;;;;;;;;;
2021/09/20 11:22:12;;;;;;;2.55;1.60;;;14.30;88.10;;;;;;4892094;29;20068;-96
2021/09/20 11:32:26;;;;;;;1.42;1.23;;;14.30;87.00;;;;;;4879051;29;20552;-96
2021/09/20 11:39:12;;;;;;;1.35;1.23;;;14.30;88.90;;;;;;4808471;30;20191;-96
2021/09/20 11:42:27;;;;;;;;;;;;;;;;;;;;;
2021/09/20 11:45:59;;;;;;;;;;;;;;;;;;;;;
2021/09/20 11:53:06;;;;;;;;;;;;;;;;;;;;;
2021/09/20 11:55:54;;;;;;;1.77;1.30;;;13.90;89.40;;;;;;4719910;30;20104;-94
2021/09/20 12:06:15;;;;;;;;;;;;;;;;;;;;;
2021/09/20 12:09:31;;;;;;;;;;;;;;;;;;;;;
2021/09/20 12:12:50;;;;;;;;;;;;;;;;;;;;;
2021/09/20 12:15:41;;;;;;;1.73;1.38;;;13.30;92.00;;;;;;4747928;29;20124;-93
2021/09/20 12:18:41;;;;;;;;;;;;;;;;;;;;;
2021/09/20 12:21:13;;;;;;;2.05;1.52;;;13.40;92.40;;;;;;4962807;29;20114;-92
2021/09/20 12:23:45;;;;;;;3.53;1.55;;;13.40;92.30;;;;;;4944563;28;20089;-93
2021/09/20 12:26:18;;;;;;;2.75;1.33;;;13.40;92.30;;;;;;4945696;29;20047;-94
2021/09/20 12:30:03;;;;;;;1.73;1.30;;;13.40;92.30;;;;;;4953415;29;20035;-95
2021/09/20 12:33:37;;;;;;;;;;;;;;;;;;;;;
2021/09/20 12:36:31;;;;;;;;;;;;;;;;;;;;;
2021/09/20 12:39:21;;;;;;;1.45;1.35;;;13.60;92.50;;;;;;4910457;29;20104;-93
2021/09/20 12:46:00;;;;;;;;;;;;;;;;;;;;;
2021/09/20 12:52:55;;;;;;;;;;;;;;;;;;;;;
2021/09/20 15:52:47;;;;;;;0.98;0.70;;;12.80;97.00;;;;;;6018439;23;20026;-96
2021/09/20 15:55:46;;;;;;;1.30;1.00;;;12.80;97.10;;;;;;4973831;29;20062;-96
2021/09/20 15:58:16;;;;;;;1.75;1.23;;;12.80;97.20;;;;;;4959940;29;20087;-95
2021/09/20 16:01:35;;;;;;;1.85;1.45;;;12.70;97.20;;;;;;4975485;29;20071;-95
2021/09/20 16:04:56;;;;;;;2.03;1.05;;;12.70;97.50;;;;;;4960459;29;20058;-95
2021/09/20 16:11:12;;;;;;;1.50;1.15;;;12.70;97.70;;;;;;4849016;29;20056;-95
2021/09/20 16:15:02;;;;;;;;;;;;;;;;;;;;;
2021/09/20 16:23:16;;;;;;;1.67;1.10;;;12.50;98.20;;;;;;4840308;29;20056;-89
2021/09/20 16:25:42;;;;;;;2.10;1.35;;;12.50;98.30;;;;;;4950442;29;20047;-90
2021/09/20 16:28:10;;;;;;;2.20;1.45;;;12.50;98.30;;;;;;4957976;29;20046;-91
2021/09/20 16:30:36;;;;;;;1.77;1.35;;;12.50;98.40;;;;;;4960244;29;20047;-91
2021/09/20 16:33:02;;;;;;;1.55;1.23;;;12.50;98.40;;;;;;4956299;29;20070;-90
2021/09/20 16:35:28;;;;;;;2.80;1.60;;;12.50;98.50;;;;;;4955475;29;20186;-92
2021/09/20 16:37:54;;;;;;;1.20;1.10;;;12.50;98.70;;;;;;4955879;29;20039;-91
2021/09/20 16:40:23;;;;;;;1.13;1.00;;;12.50;98.80;;;;;;4956509;29;20042;-92
2021/09/20 16:42:49;;;;;;;2.05;1.60;;;12.50;98.80;;;;;;4957003;29;20058;-91
2021/09/20 16:45:18;;;;;;;1.75;1.38;;;12.50;98.90;;;;;;4955088;29;20059;-91
2021/09/20 16:47:46;;;;;;;6.43;1.52;;;12.50;98.90;;;;;;4953781;29;20447;-91
2021/09/20 16:50:13;;;;;;;1.55;1.13;;;12.50;99.00;;;;;;4941945;29;20549;-90
2021/09/20 16:52:40;;;;;;;1.73;1.38;;;12.50;99.20;;;;;;4935790;29;20130;-90
2021/09/20 16:55:07;;;;;;;1.77;1.30;;;12.50;99.20;;;;;;4936089;29;20046;-89
2021/09/20 16:57:35;;;;;;;2.55;1.92;;;12.50;99.40;;;;;;4936435;29;20039;-91
2021/09/20 17:00:06;;;;;;;2.00;1.50;;;12.40;99.50;;;;;;4920337;29;20031;-88
2021/09/20 17:02:36;;;;;;;1.40;1.30;;;12.40;99.90;;;;;;4936483;29;20043;-88
2021/09/20 17:05:04;;;;;;;2.42;1.80;;;12.40;99.90;;;;;;4934014;29;20040;-88
2021/09/20 17:07:30;;;;;;;3.28;1.77;;;12.30;99.90;;;;;;4935806;29;20036;-87
2021/09/20 17:09:56;;;;;;;1.80;1.23;;;12.30;99.90;;;;;;4936508;29;20040;-87
2021/09/20 17:12:24;;;;;;;2.00;1.48;;;12.20;99.90;;;;;;4935490;29;20051;-88
2021/09/20 17:14:52;;;;;;;2.25;1.65;;;12.20;99.90;;;;;;4935553;29;20710;-88
2021/09/20 17:17:18;;;;;;;1.70;1.60;;;12.20;99.90;;;;;;4920262;29;20127;-88
2021/09/20 17:19:44;;;;;;;1.88;1.55;;;12.20;99.90;;;;;;4935334;29;20043;-88
2021/09/20 17:22:18;;;;;;;1.90;1.50;;;12.10;99.90;;;;;;4935700;29;20036;-88
2021/09/20 17:24:44;;;;;;;1.40;1.30;;;12.10;99.90;;;;;;4937376;29;20035;-90
2021/09/20 17:27:11;;;;;;;1.55;1.42;;;12.10;99.90;;;;;;4936810;29;20126;-89
2021/09/20 17:29:37;;;;;;;1.23;1.10;;;12.20;99.90;;;;;;4919995;29;20031;-88
2021/09/20 17:32:03;;;;;;;2.00;1.60;;;12.10;99.90;;;;;;4919383;29;20094;-89
2021/09/20 17:34:29;;;;;;;2.90;1.67;;;12.10;99.90;;;;;;4920280;29;20051;-89
2021/09/20 17:36:54;;;;;;;1.65;1.50;;;12.10;99.90;;;;;;4920529;29;20119;-89
2021/09/20 17:39:20;;;;;;;1.42;1.20;;;12.10;99.90;;;;;;4921628;29;20036;-89
2021/09/20 17:41:46;;;;;;;3.35;1.95;;;12.10;99.90;;;;;;4920457;29;20112;-89
2021/09/20 17:44:13;;;;;;;2.97;1.73;;;12.10;99.90;;;;;;4920562;29;20491;-89
2021/09/20 17:46:40;;;;;;;1.75;1.45;;;12.10;99.90;;;;;;4920304;29;20839;-88
2021/09/20 17:49:06;;;;;;;2.88;1.63;;;12.10;99.90;;;;;;4920440;29;20038;-89
2021/09/20 17:51:34;;;;;;;1.23;1.10;;;12.10;99.90;;;;;;4937102;29;20035;-90
2021/09/20 17:54:00;;;;;;;1.65;1.55;;;12.10;99.90;;;;;;4935615;29;20090;-89
2021/09/20 17:56:28;;;;;;;1.77;1.63;;;12.10;99.90;;;;;;4920572;29;20423;-88
2021/09/20 17:58:53;;;;;;;2.55;1.25;;;12.10;99.90;;;;;;4939087;29;20036;-90
2021/09/20 18:01:19;;;;;;;2.42;1.65;;;12.10;99.90;;;;;;4941762;29;20043;-89
2021/09/20 18:03:45;;;;;;;1.67;1.58;;;12.10;99.90;;;;;;4939124;29;20396;-87
2021/09/20 18:06:11;;;;;;;1.92;1.48;;;12.10;99.90;;;;;;4936192;29;20094;-89
2021/09/20 18:08:36;;;;;;;2.53;1.90;;;12.10;99.90;;;;;;4935808;29;20039;-89
2021/09/20 18:11:02;;;;;;;1.63;1.45;;;12.00;99.90;;;;;;4935242;29;20039;-88
2021/09/20 18:13:28;;;;;;;2.05;1.70;;;12.10;99.90;;;;;;4935397;29;20035;-89
2021/09/20 18:15:53;;;;;;;1.85;1.58;;;12.10;99.90;;;;;;4937230;29;20074;-88
2021/09/20 18:18:19;;;;;;;1.92;1.48;;;12.10;99.90;;;;;;4935584;29;20490;-89
2021/09/20 18:20:45;;;;;;;2.25;1.42;;;12.10;99.90;;;;;;4920330;29;20122;-88
2021/09/20 18:23:11;;;;;;;2.10;1.80;;;12.10;99.90;;;;;;4920985;29;20070;-89
2021/09/20 18:25:36;;;;;;;2.47;1.92;;;12.10;99.90;;;;;;4941194;29;20035;-89
2021/09/20 18:28:03;;;;;;;2.25;1.70;;;12.10;99.90;;;;;;4940183;29;20135;-90
2021/09/20 18:30:28;;;;;;;2.42;1.60;;;12.10;99.90;;;;;;4940591;29;20063;-89
2021/09/20 18:32:55;;;;;;;2.50;2.00;;;12.10;99.90;;;;;;4935927;29;20035;-89
2021/09/20 18:35:21;;;;;;;2.50;2.15;;;12.10;99.90;;;;;;4936258;29;20067;-89
2021/09/20 18:37:47;;;;;;;2.25;1.65;;;12.10;99.90;;;;;;4935629;29;20039;-89
2021/09/20 18:40:14;;;;;;;3.50;2.22;;;12.10;99.90;;;;;;4919766;29;20071;-88
2021/09/20 18:42:40;;;;;;;2.55;2.13;;;12.10;99.90;;;;;;4919735;29;20074;-89
2021/09/20 18:45:07;;;;;;;2.00;1.58;;;12.10;99.90;;;;;;4936624;29;20415;-89
2021/09/20 18:47:32;;;;;;;5.15;2.20;;;12.10;99.90;;;;;;4935185;29;20040;-89
2021/09/20 18:49:58;;;;;;;3.15;1.98;;;12.10;99.90;;;;;;4934806;29;20087;-89
2021/09/20 18:52:24;;;;;;;3.00;1.98;;;12.10;99.90;;;;;;4935532;29;20400;-89
2021/09/20 18:54:50;;;;;;;1.73;1.42;;;12.10;99.90;;;;;;4935184;29;20056;-89
2021/09/20 18:57:17;;;;;;;2.05;1.88;;;12.10;99.90;;;;;;4919502;29;20063;-89
2021/09/20 18:59:42;;;;;;;1.95;1.75;;;12.10;99.90;;;;;;4919562;29;20130;-89
2021/09/20 19:02:09;;;;;;;3.22;2.55;;;12.10;99.90;;;;;;4919829;29;20131;-89
2021/09/20 19:04:35;;;;;;;2.42;1.85;;;12.10;99.90;;;;;;4935140;29;20040;-89
2021/09/20 19:07:01;;;;;;;3.17;2.38;;;12.10;99.90;;;;;;4935243;29;20054;-88
2021/09/20 19:09:31;;;;;;;2.90;1.95;;;12.10;99.90;;;;;;4919399;29;20043;-88
2021/09/20 19:11:57;;;;;;;3.00;2.35;;;12.10;99.90;;;;;;4919430;29;20046;-89
2021/09/20 19:14:23;;;;;;;2.03;1.63;;;12.10;99.90;;;;;;4920204;29;20043;-89
2021/09/20 19:16:49;;;;;;;2.53;1.90;;;12.10;99.90;;;;;;4920432;29;20427;-89
2021/09/20 19:19:15;;;;;;;1.70;1.60;;;12.10;99.90;;;;;;4919371;29;20032;-88
2021/09/20 19:21:42;;;;;;;4.38;2.40;;;12.10;99.90;;;;;;4919137;29;20119;-88
2021/09/20 19:24:11;;;;;;;2.22;2.03;;;12.10;99.90;;;;;;4919995;29;20444;-89
2021/09/20 19:26:37;;;;;;;3.10;2.30;;;12.10;99.90;;;;;;4919079;29;20044;-88
2021/09/20 19:29:03;;;;;;;2.30;1.63;;;12.10;99.90;;;;;;4919376;29;20067;-89
2021/09/20 19:31:29;;;;;;;2.25;2.00;;;12.10;99.90;;;;;;4919102;29;20476;-88
2021/09/20 19:33:55;;;;;;;2.30;1.92;;;12.10;99.90;;;;;;4934728;29;20131;-88
2021/09/20 19:36:23;;;;;;;3.45;2.42;;;12.10;99.90;;;;;;4934950;29;20202;-88
2021/09/20 19:38:48;;;;;;;2.00;1.80;;;12.10;99.90;;;;;;4936205;29;20035;-89
2021/09/20 19:41:15;;;;;;;3.03;2.35;;;12.00;99.90;;;;;;4934850;29;20394;-88
2021/09/20 19:43:41;;;;;;;2.75;2.13;;;12.00;99.90;;;;;;4935601;29;20035;-88
2021/09/20 19:46:08;;;;;;;2.72;2.00;;;12.00;99.90;;;;;;4938520;29;20050;-88
2021/09/20 19:48:35;;;;;;;2.58;1.98;;;11.90;99.90;;;;;;4939997;29;20440;-88
2021/09/20 19:51:01;;;;;;;2.47;2.05;;;11.90;99.90;;;;;;4922478;29;20068;-89
2021/09/20 19:53:27;;;;;;;2.28;1.73;;;11.90;99.90;;;;;;4922366;29;20483;-89
2021/09/20 19:55:53;;;;;;;2.50;2.03;;;11.90;99.90;;;;;;4922622;29;20051;-88
2021/09/20 19:58:19;;;;;;;2.60;2.30;;;11.90;99.90;;;;;;4922499;29;20396;-88
2021/09/20 20:00:44;;;;;;;3.17;2.33;;;11.80;99.90;;;;;;4922525;29;20122;-89
2021/09/20 20:03:10;;;;;;;2.90;2.30;;;11.80;99.90;;;;;;4939445;29;20360;-88
2021/09/20 20:05:37;;;;;;;2.50;1.63;;;11.80;99.90;;;;;;4922253;29;20471;-88
2021/09/20 20:08:03;;;;;;;3.58;2.17;;;11.90;99.90;;;;;;4922153;29;20075;-88
2021/09/20 20:10:29;;;;;;;2.63;2.22;;;11.90;99.90;;;;;;4938096;29;20468;-89
2021/09/20 20:12:56;;;;;;;2.80;2.03;;;11.90;99.90;;;;;;4938044;29;20039;-89
2021/09/20 20:15:22;;;;;;;2.47;1.90;;;11.90;99.90;;;;;;4938051;29;20050;-89
2021/09/20 20:17:48;;;;;;;3.17;1.77;;;11.90;99.90;;;;;;4922172;29;20035;-89
2021/09/20 20:20:15;;;;;;;2.50;1.95;;;11.90;99.90;;;;;;4922057;29;20042;-89
2021/09/20 20:22:54;;;;;;;1.90;1.70;;;11.90;99.90;;;;;;4922000;29;20180;-88
2021/09/20 20:25:20;;;;;;;2.80;2.42;;;11.90;99.90;;;;;;4922267;29;20343;-88
2021/09/20 20:27:46;;;;;;;2.92;2.08;;;11.90;99.90;;;;;;4938989;29;20115;-89
2021/09/20 20:30:13;;;;;;;2.38;1.75;;;11.90;99.90;;;;;;4921866;29;20042;-88
2021/09/20 20:32:39;;;;;;;3.90;2.47;;;11.90;99.90;;;;;;4921782;29;20040;-89
2021/09/20 20:35:06;;;;;;;3.85;1.92;;;11.90;99.90;;;;;;4937653;29;20039;-88
2021/09/20 20:37:31;;;;;;;2.20;2.03;;;11.90;99.90;;;;;;4921696;29;20042;-89
2021/09/20 20:39:57;;;;;;;3.25;2.10;;;11.90;99.90;;;;;;4937418;29;20036;-89
2021/09/20 20:42:23;;;;;;;2.42;1.70;;;11.90;99.90;;;;;;4937442;29;20106;-89
2021/09/20 20:44:49;;;;;;;2.67;1.63;;;11.90;99.90;;;;;;4937299;29;20131;-88
2021/09/20 20:47:16;;;;;;;2.17;1.88;;;12.00;99.90;;;;;;4921541;29;20131;-89
2021/09/20 20:49:41;;;;;;;2.42;1.90;;;12.00;99.90;;;;;;4921121;29;20042;-89
2021/09/20 20:52:07;;;;;;;2.10;1.90;;;12.00;99.90;;;;;;4937169;29;20399;-89
2021/09/20 20:54:33;;;;;;;3.00;2.20;;;12.00;99.90;;;;;;4936862;29;20047;-89
2021/09/20 20:56:59;;;;;;;2.20;2.00;;;11.90;99.90;;;;;;4939116;29;20063;-89
2021/09/20 20:59:25;;;;;;;3.33;2.33;;;12.00;99.90;;;;;;4922426;29;20036;-89
2021/09/20 21:01:51;;;;;;;2.60;2.30;;;12.00;99.90;;;;;;4922076;29;20035;-89
2021/09/20 21:04:17;;;;;;;2.75;1.85;;;11.90;99.90;;;;;;4921388;29;20082;-89
2021/09/20 21:06:42;;;;;;;2.83;2.00;;;11.90;99.90;;;;;;4921288;29;20075;-89
2021/09/20 21:09:08;;;;;;;2.55;2.30;;;11.90;99.90;;;;;;4921876;29;20067;-89
2021/09/20 21:11:34;;;;;;;3.00;2.40;;;11.90;99.90;;;;;;4921224;29;20036;-88
2021/09/20 21:14:00;;;;;;;2.38;2.00;;;11.90;99.90;;;;;;4936831;29;20032;-88
2021/09/20 21:16:27;;;;;;;2.47;1.92;;;11.90;99.90;;;;;;4936923;29;20479;-89
2021/09/20 21:18:52;;;;;;;4.50;2.78;;;11.90;99.90;;;;;;4921153;29;20088;-89
2021/09/20 21:21:18;;;;;;;2.80;2.13;;;11.90;99.90;;;;;;4938316;29;20472;-89
2021/09/20 21:23:44;;;;;;;3.58;2.40;;;12.00;99.90;;;;;;4920952;29;20036;-89
2021/09/20 21:26:10;;;;;;;4.78;3.42;;;11.90;99.90;;;;;;4920948;29;20391;-88
2021/09/20 21:28:36;;;;;;;2.72;2.33;;;11.90;99.90;;;;;;4921418;29;20403;-88
2021/09/20 21:31:03;;;;;;;3.08;2.22;;;11.90;99.90;;;;;;4921653;29;20031;-89
2021/09/20 21:33:30;;;;;;;4.40;2.80;;;11.90;99.90;;;;;;4920685;29;20040;-89
2021/09/20 21:35:57;;;;;;;3.00;2.60;;;11.90;99.90;;;;;;4920635;29;20043;-88
2021/09/20 21:38:24;;;;;;;3.30;2.13;;;11.90;99.90;;;;;;4937710;29;20028;-89
2021/09/20 21:40:50;;;;;;;2.80;2.05;;;11.90;99.90;;;;;;4920592;29;20047;-88
2021/09/20 21:43:17;;;;;;;3.67;2.25;;;11.90;99.90;;;;;;4937680;29;20444;-89
2021/09/20 21:45:43;;;;;;;2.95;2.42;;;11.90;99.90;;;;;;4920517;29;20036;-89
2021/09/20 21:48:08;;;;;;;3.72;2.72;;;11.90;99.90;;;;;;4920285;29;20036;-88
2021/09/20 21:50:34;;;;;;;3.17;2.70;;;11.90;99.90;;;;;;4937411;29;20035;-89
2021/09/20 21:53:00;;;;;;;2.35;1.88;;;11.90;99.90;;;;;;4920292;29;20044;-89
2021/09/20 21:55:31;;;;;;;4.05;2.55;;;11.90;99.90;;;;;;4921234;29;20040;-88
2021/09/20 21:58:01;;;;;;;2.90;2.22;;;11.90;99.90;;;;;;4920424;29;20487;-89
2021/09/20 22:00:50;;;;;;;3.08;2.60;;;11.90;99.90;;;;;;4919970;29;20518;-89
2021/09/20 22:03:21;;;;;;;2.58;2.05;;;11.90;99.90;;;;;;4920006;29;20036;-88
2021/09/20 22:05:47;;;;;;;3.03;2.50;;;11.80;99.90;;;;;;4920224;29;20372;-88
2021/09/20 22:08:13;;;;;;;2.63;1.80;;;11.80;99.90;;;;;;4936171;29;20098;-89
2021/09/20 22:10:39;;;;;;;3.30;2.53;;;11.80;99.90;;;;;;4920170;29;20039;-88
2021/09/20 22:13:05;;;;;;;2.00;1.80;;;11.80;99.90;;;;;;4920040;29;20036;-88
2021/09/20 22:15:31;;;;;;;3.28;2.40;;;11.80;99.90;;;;;;4937030;29;20048;-88
2021/09/20 22:17:57;;;;;;;3.22;2.00;;;11.80;99.90;;;;;;4919929;29;20047;-88
2021/09/20 22:20:23;;;;;;;3.10;2.75;;;11.80;99.90;;;;;;4936078;29;20036;-88
2021/09/20 22:22:49;;;;;;;3.78;2.45;;;11.80;99.90;;;;;;4937432;29;20072;-89
2021/09/20 22:25:14;;;;;;;3.30;2.25;;;11.70;99.90;;;;;;4919456;29;20048;-88
2021/09/20 22:27:40;;;;;;;3.95;2.33;;;11.70;99.90;;;;;;4935556;29;20134;-89
2021/09/20 22:30:07;;;;;;;3.22;2.58;;;11.70;99.90;;;;;;4936002;29;20043;-88
2021/09/20 22:32:32;;;;;;;3.60;2.75;;;11.70;99.90;;;;;;4935693;29;20036;-89
2021/09/20 22:34:58;;;;;;;4.32;3.15;;;11.70;99.90;;;;;;4935755;29;20045;-89
2021/09/20 22:37:27;;;;;;;2.92;2.15;;;11.70;99.90;;;;;;4919928;29;20373;-89
2021/09/20 22:39:57;;;;;;;4.53;2.38;;;11.60;99.90;;;;;;4936752;29;20391;-89
2021/09/20 22:42:23;;;;;;;3.85;2.40;;;11.60;99.90;;;;;;4919699;29;20035;-89
2021/09/20 22:44:49;;;;;;;3.22;2.33;;;11.60;99.90;;;;;;4935333;29;20035;-89
2021/09/20 22:47:15;;;;;;;2.78;2.47;;;11.60;99.90;;;;;;4936655;29;20043;-89
2021/09/20 22:49:41;;;;;;;2.58;2.15;;;11.50;99.90;;;;;;4936371;29;20032;-88
2021/09/20 22:52:06;;;;;;;3.60;3.20;;;11.50;99.90;;;;;;4935520;29;20044;-89
2021/09/20 22:54:32;;;;;;;3.00;2.22;;;11.50;99.90;;;;;;4934981;29;20448;-89
2021/09/20 22:56:58;;;;;;;3.30;2.47;;;11.40;99.90;;;;;;4935188;29;20050;-88
2021/09/20 22:59:24;;;;;;;2.60;1.85;;;11.40;99.90;;;;;;4920051;29;20461;-89
2021/09/20 23:01:50;;;;;;;2.78;2.30;;;11.40;99.90;;;;;;4936362;29;20071;-89
2021/09/20 23:04:48;;;;;;;2.40;2.00;;;11.40;99.90;;;;;;4935392;29;20042;-89
2021/09/20 23:07:16;;;;;;;4.20;2.65;;;11.40;99.90;;;;;;4893756;29;20055;-89
2021/09/20 23:09:43;;;;;;;2.72;2.03;;;11.30;99.90;;;;;;4919233;29;20079;-88
2021/09/20 23:12:09;;;;;;;2.70;2.28;;;11.30;99.90;;;;;;4935247;29;20035;-89
2021/09/20 23:14:35;;;;;;;2.88;2.17;;;11.30;99.90;;;;;;4918992;29;20051;-88
2021/09/20 23:17:02;;;;;;;2.03;1.83;;;11.20;99.90;;;;;;4935150;29;20083;-88
2021/09/20 23:19:28;;;;;;;2.95;2.03;;;11.30;99.90;;;;;;4937079;29;20046;-89
2021/09/20 23:21:55;;;;;;;2.78;1.77;;;11.30;99.90;;;;;;4940256;29;20039;-89
2021/09/20 23:24:21;;;;;;;2.45;1.85;;;11.30;99.90;;;;;;4922977;29;20043;-89
2021/09/20 23:26:47;;;;;;;2.40;2.20;;;11.30;99.90;;;;;;4939930;29;20036;-89
2021/09/20 23:29:13;;;;;;;2.70;2.08;;;11.30;99.90;;;;;;4938599;29;20032;-89